Time;durP1;ratioP1;P1;durP2;ratioP2;P2;SDS_P1;SDS_P2;PMS_P1;PMS_P2;Temp;Humidity;BMP_temperature;BMP_pressure;BME280_temperature;BME280_humidity;BME280_pressure;Samples;Min_cycle;Max_cycle;Signal;HPM_P1;HPM_P2
2023/08/19 00:01:34;;;;;;;30.70;25.67;;;20.60;99.90;;;;;;5098785;28;20058;-58
2023/08/19 00:04:00;;;;;;;29.63;26.45;;;20.70;99.90;;;;;;5098550;28;20047;-59
2023/08/19 00:06:40;;;;;;;30.08;26.92;;;20.60;99.90;;;;;;5099842;28;20044;-58
2023/08/19 00:09:09;;;;;;;29.25;26.00;;;20.40;99.90;;;;;;5079614;28;20054;-58
2023/08/19 00:11:37;;;;;;;27.85;24.95;;;20.40;99.90;;;;;;5099487;28;20044;-58
2023/08/19 00:14:03;;;;;;;30.20;27.02;;;20.40;99.90;;;;;;5097844;28;20091;-58
2023/08/19 00:16:29;;;;;;;29.60;25.83;;;20.40;99.90;;;;;;5080671;28;20039;-58
2023/08/19 00:18:55;;;;;;;28.55;25.52;;;20.60;99.90;;;;;;5098743;28;20040;-57
2023/08/19 00:21:21;;;;;;;27.52;24.58;;;20.40;99.90;;;;;;5097928;28;20059;-57
2023/08/19 00:23:47;;;;;;;28.33;24.55;;;20.30;99.90;;;;;;5099798;28;20075;-58
2023/08/19 00:26:13;;;;;;;29.08;25.98;;;20.50;99.90;;;;;;5096699;28;20239;-58
2023/08/19 00:28:39;;;;;;;28.67;25.60;;;20.30;99.90;;;;;;5099358;28;20512;-58
2023/08/19 00:31:06;;;;;;;29.55;26.45;;;20.50;99.90;;;;;;5097607;28;20066;-58
2023/08/19 00:33:32;;;;;;;29.48;26.30;;;20.40;99.90;;;;;;5098671;28;20044;-58
2023/08/19 00:35:58;;;;;;;28.45;25.35;;;20.30;99.90;;;;;;5098447;28;20050;-58
2023/08/19 00:38:23;;;;;;;29.40;25.63;;;20.50;99.90;;;;;;5097534;28;20040;-58
2023/08/19 00:40:49;;;;;;;28.25;25.15;;;20.30;99.90;;;;;;5099352;28;20042;-58
2023/08/19 00:43:14;;;;;;;31.23;25.90;;;20.40;99.90;;;;;;5096901;28;20032;-58
2023/08/19 00:45:46;;;;;;;30.35;25.02;;;20.40;99.90;;;;;;5099089;28;20111;-58
2023/08/19 00:48:12;;;;;;;28.90;25.75;;;20.30;99.90;;;;;;5096859;28;20050;-58
2023/08/19 00:50:39;;;;;;;28.63;25.65;;;20.50;99.90;;;;;;5098637;28;20487;-58
2023/08/19 00:53:06;;;;;;;27.35;23.92;;;20.30;99.90;;;;;;5098154;28;20055;-57
2023/08/19 00:55:32;;;;;;;30.33;25.92;;;20.50;99.90;;;;;;5092917;28;20036;-59
2023/08/19 00:58:01;;;;;;;26.38;23.55;;;20.30;99.90;;;;;;5078984;28;20052;-61
2023/08/19 01:00:31;;;;;;;27.52;24.52;;;20.20;99.90;;;;;;5076490;28;20033;-58
2023/08/19 01:02:58;;;;;;;27.33;24.00;;;20.40;99.90;;;;;;5077721;28;20053;-58
2023/08/19 01:05:31;;;;;;;27.65;24.55;;;20.30;99.90;;;;;;5076863;28;20060;-60
2023/08/19 01:07:59;;;;;;;28.40;25.33;;;20.20;99.90;;;;;;5077894;28;20040;-58
2023/08/19 01:10:52;;;;;;;26.55;23.65;;;20.50;99.90;;;;;;5078231;28;20115;-57
2023/08/19 01:13:23;;;;;;;26.42;22.83;;;20.40;99.90;;;;;;5075722;28;20052;-58
2023/08/19 01:16:04;;;;;;;26.52;23.25;;;20.50;99.90;;;;;;5078634;28;20100;-58
2023/08/19 01:18:30;;;;;;;26.77;23.52;;;20.50;99.90;;;;;;5076721;28;20041;-58
2023/08/19 01:20:57;;;;;;;27.20;24.27;;;20.50;99.90;;;;;;5077486;28;20049;-58
2023/08/19 01:23:29;;;;;;;27.50;24.60;;;20.50;99.90;;;;;;5077821;28;20041;-59
2023/08/19 01:25:55;;;;;;;26.77;22.98;;;20.50;99.90;;;;;;5076128;28;20056;-58
2023/08/19 01:28:21;;;;;;;26.20;23.48;;;20.30;99.90;;;;;;5078261;28;20036;-59
2023/08/19 01:30:47;;;;;;;26.80;23.95;;;20.30;99.90;;;;;;5076381;28;20423;-58
2023/08/19 01:33:13;;;;;;;28.60;24.58;;;20.30;99.90;;;;;;5077864;28;20040;-58
2023/08/19 01:35:44;;;;;;;27.88;24.90;;;20.20;99.90;;;;;;5076867;28;20080;-58
2023/08/19 01:38:23;;;;;;;28.67;24.23;;;20.40;99.90;;;;;;5076987;28;20476;-59
2023/08/19 01:40:50;;;;;;;28.52;24.20;;;20.40;99.90;;;;;;5078525;28;20045;-58
2023/08/19 01:43:17;;;;;;;28.00;24.52;;;20.40;99.90;;;;;;5075912;28;20143;-58
2023/08/19 01:45:42;;;;;;;30.13;25.20;;;20.40;99.90;;;;;;5078140;28;20051;-59
2023/08/19 01:48:08;;;;;;;27.83;24.73;;;20.20;99.90;;;;;;5075779;28;20138;-58
2023/08/19 01:50:34;;;;;;;29.90;25.42;;;20.40;99.90;;;;;;5077439;28;20059;-58
2023/08/19 01:53:00;;;;;;;30.38;25.00;;;20.40;99.90;;;;;;5076751;28;20092;-58
2023/08/19 01:55:26;;;;;;;32.15;27.00;;;20.30;99.90;;;;;;5062329;28;20078;-58
2023/08/19 01:57:52;;;;;;;30.38;25.75;;;20.40;99.90;;;;;;5063608;28;20047;-58
2023/08/19 02:00:17;;;;;;;29.85;26.58;;;20.20;99.90;;;;;;5095632;28;20046;-58
2023/08/19 02:02:43;;;;;;;31.20;26.10;;;20.10;99.90;;;;;;5097783;28;20071;-58
2023/08/19 02:05:13;;;;;;;29.33;25.08;;;20.20;99.90;;;;;;5096202;28;20088;-59
2023/08/19 02:07:39;;;;;;;29.98;26.05;;;20.40;99.90;;;;;;5097784;28;20083;-58
2023/08/19 02:10:06;;;;;;;29.10;25.70;;;20.10;99.90;;;;;;5096798;28;20036;-58
2023/08/19 02:12:32;;;;;;;31.17;25.60;;;20.40;99.90;;;;;;5097001;28;20043;-58
2023/08/19 02:14:57;;;;;;;30.13;25.13;;;20.20;99.90;;;;;;5098148;28;20044;-58
2023/08/19 02:17:23;;;;;;;29.48;25.48;;;20.10;99.90;;;;;;5095851;28;20283;-58
2023/08/19 02:19:49;;;;;;;28.63;25.25;;;20.30;99.90;;;;;;5097499;28;20203;-58
2023/08/19 02:22:20;;;;;;;29.25;25.48;;;20.00;99.90;;;;;;5095842;28;20040;-58
2023/08/19 02:24:46;;;;;;;30.33;26.48;;;20.30;99.90;;;;;;5097751;28;20044;-58
2023/08/19 02:27:12;;;;;;;28.65;25.45;;;20.20;99.90;;;;;;5096727;28;20254;-58
2023/08/19 02:29:37;;;;;;;30.45;26.13;;;20.00;99.90;;;;;;5096663;28;20071;-58
2023/08/19 02:32:03;;;;;;;29.90;25.45;;;20.10;99.90;;;;;;5098017;28;20043;-58
2023/08/19 02:34:29;;;;;;;27.23;24.35;;;20.10;99.90;;;;;;5095405;28;20098;-58
2023/08/19 02:36:54;;;;;;;29.55;24.73;;;20.10;99.90;;;;;;5097967;28;20044;-58
2023/08/19 02:39:20;;;;;;;27.33;24.42;;;20.10;99.90;;;;;;5077354;28;20139;-58
2023/08/19 02:41:46;;;;;;;32.40;26.45;;;20.00;99.90;;;;;;5097196;28;20100;-58
2023/08/19 02:44:11;;;;;;;27.75;23.67;;;20.00;99.90;;;;;;5096247;28;20048;-58
2023/08/19 02:46:37;;;;;;;29.00;24.83;;;20.20;99.90;;;;;;5096733;28;20094;-58
2023/08/19 02:49:03;;;;;;;30.38;24.92;;;20.00;99.90;;;;;;5098516;28;20399;-58
2023/08/19 02:51:29;;;;;;;30.70;25.75;;;20.20;99.90;;;;;;5099556;28;20051;-58
2023/08/19 02:53:55;;;;;;;28.58;24.98;;;20.10;99.90;;;;;;5101108;28;20055;-58
2023/08/19 02:56:21;;;;;;;28.50;24.98;;;19.90;99.90;;;;;;5087768;28;20032;-58
2023/08/19 02:58:46;;;;;;;27.30;24.30;;;19.90;99.90;;;;;;5080768;28;20037;-58
2023/08/19 03:01:13;;;;;;;28.33;25.25;;;20.30;99.90;;;;;;5061753;28;20417;-58
2023/08/19 03:03:39;;;;;;;28.30;24.85;;;20.30;99.90;;;;;;5080042;28;20570;-58
2023/08/19 03:06:05;;;;;;;28.23;25.13;;;20.30;99.90;;;;;;5080692;28;20048;-57
2023/08/19 03:08:31;;;;;;;29.88;25.63;;;20.10;99.90;;;;;;5078840;28;20171;-56
2023/08/19 03:10:56;;;;;;;27.42;23.75;;;20.20;99.90;;;;;;5080882;28;20044;-58
2023/08/19 03:13:22;;;;;;;27.75;24.85;;;20.30;99.90;;;;;;5078248;28;20044;-58
2023/08/19 03:15:48;;;;;;;28.50;24.67;;;20.20;99.90;;;;;;5080729;28;20032;-58
2023/08/19 03:18:14;;;;;;;28.65;24.95;;;20.20;99.90;;;;;;5078642;28;20044;-58
2023/08/19 03:20:41;;;;;;;28.50;25.50;;;20.20;99.90;;;;;;5080085;28;20044;-58
2023/08/19 03:23:07;;;;;;;27.23;23.92;;;20.00;99.90;;;;;;5080076;28;20450;-59
2023/08/19 03:25:33;;;;;;;30.42;25.65;;;20.20;99.90;;;;;;5078986;28;20271;-59
2023/08/19 03:27:58;;;;;;;27.73;23.60;;;20.00;99.90;;;;;;5080969;28;20052;-58
2023/08/19 03:30:24;;;;;;;27.60;24.58;;;20.10;99.90;;;;;;5078186;28;20040;-59
2023/08/19 03:32:50;;;;;;;27.42;23.67;;;20.10;99.90;;;;;;5080237;28;20044;-58
2023/08/19 03:35:16;;;;;;;29.05;25.48;;;20.20;99.90;;;;;;5078481;28;20055;-58
2023/08/19 03:37:41;;;;;;;28.27;25.05;;;20.30;99.90;;;;;;5079704;28;20040;-58
2023/08/19 03:40:08;;;;;;;30.27;25.33;;;20.30;99.90;;;;;;5079339;28;20051;-55
2023/08/19 03:42:33;;;;;;;29.58;25.38;;;20.20;99.90;;;;;;5060628;28;20076;-58
2023/08/19 03:44:59;;;;;;;31.17;24.80;;;20.00;99.90;;;;;;5080163;28;20036;-58
2023/08/19 03:47:25;;;;;;;32.80;26.27;;;20.30;99.90;;;;;;5077615;28;20037;-58
2023/08/19 03:49:50;;;;;;;30.13;25.45;;;20.30;99.90;;;;;;5079655;28;20060;-57
2023/08/19 03:52:16;;;;;;;29.52;24.77;;;20.10;99.90;;;;;;5077915;28;20053;-58
2023/08/19 03:54:42;;;;;;;28.85;25.23;;;20.10;99.90;;;;;;5079604;28;20059;-58
2023/08/19 03:57:08;;;;;;;29.45;25.65;;;20.00;99.90;;;;;;5096820;28;20044;-58
2023/08/19 03:59:34;;;;;;;33.22;27.17;;;20.00;99.90;;;;;;5098321;28;20055;-58
2023/08/19 04:01:59;;;;;;;29.35;26.13;;;20.10;99.90;;;;;;5098998;28;20043;-58
2023/08/19 04:04:25;;;;;;;30.63;26.13;;;20.10;99.90;;;;;;5097618;28;20056;-58
2023/08/19 04:06:51;;;;;;;29.90;25.73;;;20.10;99.90;;;;;;5081886;28;20048;-63
2023/08/19 04:09:16;;;;;;;28.88;24.67;;;20.20;99.90;;;;;;5079815;28;20046;-60
2023/08/19 04:11:42;;;;;;;26.50;21.75;;;20.00;99.90;;;;;;5099831;28;20073;-59
2023/08/19 04:14:11;;;;;;;27.83;24.80;;;20.40;99.90;;;;;;5098205;28;20579;-58
2023/08/19 04:16:37;;;;;;;28.67;24.30;;;20.30;99.90;;;;;;5098054;28;20430;-59
2023/08/19 04:19:03;;;;;;;28.80;23.42;;;20.10;99.90;;;;;;5099029;28;20040;-59
2023/08/19 04:21:29;;;;;;;28.77;24.13;;;20.10;99.90;;;;;;5097749;28;20121;-59
2023/08/19 04:23:54;;;;;;;27.80;22.50;;;20.30;99.90;;;;;;5099582;28;20051;-58
2023/08/19 04:26:20;;;;;;;26.80;23.77;;;20.30;99.90;;;;;;5097448;28;20424;-59
2023/08/19 04:28:46;;;;;;;25.50;22.80;;;20.40;99.90;;;;;;5099608;28;20689;-58
2023/08/19 04:31:12;;;;;;;29.60;23.75;;;20.40;99.90;;;;;;5097655;28;20036;-58
2023/08/19 04:33:38;;;;;;;26.58;22.52;;;20.30;99.90;;;;;;5098612;28;20044;-58
2023/08/19 04:36:04;;;;;;;25.30;22.50;;;20.30;99.90;;;;;;5098982;28;20058;-57
2023/08/19 04:38:30;;;;;;;24.15;21.55;;;20.20;99.90;;;;;;5097532;28;20051;-58
2023/08/19 04:40:58;;;;;;;25.63;21.73;;;20.10;99.90;;;;;;5099534;28;20052;-58
2023/08/19 04:43:24;;;;;;;23.95;21.27;;;20.10;99.90;;;;;;5097348;28;20048;-58
2023/08/19 04:45:50;;;;;;;25.38;21.15;;;20.10;99.90;;;;;;5098760;28;20111;-58
2023/08/19 04:48:15;;;;;;;25.00;21.17;;;20.10;99.90;;;;;;5079128;28;20044;-58
2023/08/19 04:50:41;;;;;;;24.05;21.10;;;20.20;99.90;;;;;;5098463;28;20036;-58
2023/08/19 04:53:07;;;;;;;23.58;20.95;;;20.20;99.90;;;;;;5098420;28;20104;-57
2023/08/19 04:55:32;;;;;;;22.98;20.20;;;20.20;99.90;;;;;;5092592;28;20056;-58
2023/08/19 04:57:58;;;;;;;24.58;19.48;;;20.20;99.90;;;;;;5079063;28;20123;-58
2023/08/19 05:00:24;;;;;;;23.60;19.45;;;20.50;99.90;;;;;;5076286;28;20045;-58
2023/08/19 05:02:50;;;;;;;23.77;20.05;;;20.40;99.90;;;;;;5078163;28;20115;-58
2023/08/19 05:05:16;;;;;;;24.23;20.63;;;20.60;99.90;;;;;;5077106;28;20062;-58
2023/08/19 05:07:42;;;;;;;23.73;20.20;;;20.40;99.90;;;;;;5078074;28;20066;-58
2023/08/19 05:10:08;;;;;;;22.95;19.48;;;20.50;99.90;;;;;;5087097;28;20042;-57
2023/08/19 05:12:35;;;;;;;24.98;18.98;;;20.50;99.90;;;;;;5096832;28;20089;-58
2023/08/19 05:15:01;;;;;;;23.38;19.92;;;20.50;99.90;;;;;;5098894;28;20048;-58
2023/08/19 05:17:26;;;;;;;22.45;18.80;;;20.50;99.90;;;;;;5096381;28;20068;-58
2023/08/19 05:19:54;;;;;;;23.38;19.77;;;20.50;99.90;;;;;;5093308;28;20094;-57
2023/08/19 05:22:21;;;;;;;21.70;18.02;;;20.60;99.90;;;;;;5074410;28;20099;-57
2023/08/19 05:24:49;;;;;;;21.38;18.83;;;20.80;99.90;;;;;;5094336;28;20048;-58
2023/08/19 05:27:15;;;;;;;22.15;19.20;;;20.70;99.90;;;;;;5093539;28;20058;-57
2023/08/19 05:29:41;;;;;;;21.83;18.25;;;20.70;99.90;;;;;;5073327;28;20048;-58
2023/08/19 05:32:06;;;;;;;21.77;17.58;;;20.70;99.90;;;;;;5074527;28;20102;-57
2023/08/19 05:34:33;;;;;;;20.40;18.17;;;20.80;99.90;;;;;;5072242;28;20052;-57
2023/08/19 05:36:59;;;;;;;20.13;17.75;;;20.70;99.90;;;;;;5074310;28;20057;-58
2023/08/19 05:39:25;;;;;;;20.27;17.77;;;20.80;99.90;;;;;;5072270;28;20052;-58
2023/08/19 05:41:51;;;;;;;21.23;17.23;;;20.60;99.90;;;;;;5080901;28;20058;-58
2023/08/19 05:44:16;;;;;;;20.73;17.50;;;20.70;99.90;;;;;;5093705;28;20853;-57
2023/08/19 05:46:42;;;;;;;19.85;16.95;;;20.70;99.90;;;;;;5093255;28;20473;-58
2023/08/19 05:49:08;;;;;;;21.17;17.17;;;20.90;99.90;;;;;;5094158;28;20044;-57
2023/08/19 05:51:34;;;;;;;20.55;16.33;;;21.00;99.90;;;;;;5081405;28;20052;-58
2023/08/19 05:54:00;;;;;;;20.88;17.15;;;21.00;99.90;;;;;;5082821;28;20036;-58
2023/08/19 05:56:26;;;;;;;22.35;16.88;;;21.00;99.90;;;;;;5080010;28;20036;-58
2023/08/19 05:58:52;;;;;;;21.25;16.08;;;20.90;99.90;;;;;;5082382;28;20389;-58
2023/08/19 06:01:18;;;;;;;18.83;15.20;;;20.90;99.90;;;;;;5073751;28;20056;-57
2023/08/19 06:03:44;;;;;;;16.90;14.70;;;21.10;99.90;;;;;;5072994;28;20044;-57
2023/08/19 06:06:10;;;;;;;18.90;16.13;;;21.20;99.90;;;;;;5073588;28;20048;-57
2023/08/19 06:08:36;;;;;;;19.98;15.80;;;21.00;99.90;;;;;;5072162;28;20056;-58
2023/08/19 06:11:05;;;;;;;20.95;16.00;;;21.00;99.90;;;;;;5074019;28;20126;-58
2023/08/19 06:13:31;;;;;;;18.02;14.95;;;21.30;99.90;;;;;;5071698;28;20056;-55
2023/08/19 06:15:57;;;;;;;21.23;15.93;;;21.10;99.90;;;;;;5073377;28;20049;-58
2023/08/19 06:18:24;;;;;;;19.48;14.48;;;21.10;99.90;;;;;;5071800;28;20403;-58
2023/08/19 06:20:50;;;;;;;17.58;14.98;;;21.20;99.90;;;;;;5072713;28;20513;-58
2023/08/19 06:23:19;;;;;;;16.70;14.70;;;21.10;99.90;;;;;;5073682;28;20064;-58
2023/08/19 06:25:47;;;;;;;18.13;14.82;;;21.30;99.90;;;;;;5075460;28;20055;-58
2023/08/19 06:28:13;;;;;;;16.75;14.68;;;21.20;99.90;;;;;;5077344;28;20040;-58
2023/08/19 06:30:39;;;;;;;16.88;13.57;;;21.20;99.90;;;;;;5075183;28;20067;-58
2023/08/19 06:33:05;;;;;;;19.35;14.57;;;21.30;99.90;;;;;;5077273;28;20082;-57
2023/08/19 06:35:31;;;;;;;19.08;15.48;;;21.30;99.90;;;;;;5078652;28;20066;-58
2023/08/19 06:38:01;;;;;;;20.17;15.60;;;21.30;99.90;;;;;;5076443;28;20088;-58
2023/08/19 06:40:30;;;;;;;17.13;14.13;;;21.50;99.90;;;;;;5077237;28;20044;-58
2023/08/19 06:42:57;;;;;;;18.52;14.48;;;21.40;99.90;;;;;;5074955;28;20047;-58
2023/08/19 06:45:24;;;;;;;16.67;14.18;;;21.40;99.90;;;;;;5042872;28;20055;-58
2023/08/19 06:47:52;;;;;;;16.65;14.20;;;21.50;99.90;;;;;;5076294;28;20048;-58
2023/08/19 06:50:18;;;;;;;18.25;14.63;;;21.40;99.90;;;;;;5078213;28;20067;-58
2023/08/19 06:52:45;;;;;;;16.98;15.10;;;21.40;99.90;;;;;;5076051;28;20051;-57
2023/08/19 06:55:12;;;;;;;17.40;13.88;;;21.50;99.90;;;;;;5077878;28;20045;-58
2023/08/19 06:57:49;;;;;;;18.48;14.63;;;21.30;99.90;;;;;;5097851;28;20052;-58
2023/08/19 07:00:15;;;;;;;16.30;13.43;;;21.30;99.90;;;;;;5092645;28;20068;-58
2023/08/19 07:02:41;;;;;;;17.30;13.60;;;21.30;99.90;;;;;;5058293;28;20050;-58
2023/08/19 07:05:17;;;;;;;16.98;14.02;;;21.30;99.90;;;;;;5074861;28;20128;-58
2023/08/19 07:07:49;;;;;;;16.60;13.00;;;21.50;99.90;;;;;;5076457;28;20032;-58
2023/08/19 07:10:17;;;;;;;16.30;13.00;;;21.50;99.90;;;;;;5076882;28;20055;-58
2023/08/19 07:12:44;;;;;;;17.75;13.07;;;21.60;99.90;;;;;;5075361;28;20045;-58
2023/08/19 07:15:14;;;;;;;15.50;12.95;;;21.60;99.90;;;;;;5076665;28;20074;-58
2023/08/19 07:17:44;;;;;;;16.55;12.60;;;21.60;99.90;;;;;;5081018;28;20629;-61
2023/08/19 07:20:15;;;;;;;14.15;12.43;;;21.60;99.90;;;;;;5082372;28;20456;-58
2023/08/19 07:22:43;;;;;;;14.95;12.48;;;21.70;99.90;;;;;;5081825;28;20063;-58
2023/08/19 07:25:09;;;;;;;16.17;12.88;;;21.60;99.90;;;;;;5094884;28;20040;-58
2023/08/19 07:27:36;;;;;;;16.58;12.82;;;21.70;99.90;;;;;;5096788;28;20044;-58
2023/08/19 07:30:03;;;;;;;14.85;12.75;;;21.80;99.90;;;;;;5095063;28;20040;-58
2023/08/19 07:32:35;;;;;;;16.90;12.68;;;21.70;99.90;;;;;;5096708;28;20131;-58
2023/08/19 07:35:00;;;;;;;15.30;12.43;;;21.90;99.90;;;;;;5093747;28;20127;-58
2023/08/19 07:37:26;;;;;;;17.02;13.65;;;21.70;99.90;;;;;;5096221;28;20459;-58
2023/08/19 07:39:53;;;;;;;14.75;11.90;;;21.80;99.90;;;;;;5094961;28;20048;-57
2023/08/19 07:42:19;;;;;;;13.73;10.98;;;22.00;99.90;;;;;;5077495;28;20104;-58
2023/08/19 07:44:44;;;;;;;15.88;12.18;;;22.00;99.90;;;;;;5096407;28;20094;-58
2023/08/19 07:47:10;;;;;;;15.38;12.50;;;21.90;99.90;;;;;;5094143;28;20048;-58
2023/08/19 07:49:39;;;;;;;15.85;11.40;;;22.10;99.90;;;;;;5077523;28;20043;-58
2023/08/19 07:52:05;;;;;;;13.77;11.52;;;22.00;99.90;;;;;;5094751;28;20128;-58
2023/08/19 07:54:31;;;;;;;15.07;12.00;;;21.90;99.90;;;;;;5085367;28;20041;-58
2023/08/19 07:56:58;;;;;;;15.07;12.35;;;21.90;99.90;;;;;;5091657;28;20538;-58
2023/08/19 07:59:25;;;;;;;15.75;11.75;;;22.10;99.90;;;;;;5097336;28;20056;-57
2023/08/19 08:01:52;;;;;;;14.20;11.15;;;22.10;99.90;;;;;;5099764;28;20487;-57
2023/08/19 08:04:18;;;;;;;14.90;11.60;;;22.20;99.90;;;;;;5096998;28;20054;-57
2023/08/19 08:06:45;;;;;;;13.75;11.48;;;22.20;99.90;;;;;;5100029;28;20077;-58
2023/08/19 08:09:11;;;;;;;13.63;10.65;;;22.30;99.90;;;;;;5097690;28;20603;-57
2023/08/19 08:11:37;;;;;;;16.33;11.80;;;22.30;99.90;;;;;;5099673;28;20129;-58
2023/08/19 08:14:03;;;;;;;14.77;10.80;;;22.30;99.90;;;;;;5097876;28;20559;-58
2023/08/19 08:16:29;;;;;;;14.18;11.13;;;22.20;99.90;;;;;;5099138;28;20070;-58
2023/08/19 08:18:55;;;;;;;15.00;11.13;;;22.30;99.90;;;;;;5099010;28;20043;-57
2023/08/19 08:21:20;;;;;;;12.95;10.25;;;22.40;99.90;;;;;;5092694;28;20065;-58
2023/08/19 08:23:47;;;;;;;13.90;10.52;;;22.50;99.90;;;;;;5095324;28;20357;-58
2023/08/19 08:26:13;;;;;;;13.18;10.43;;;22.60;99.90;;;;;;5082993;28;20133;-58
2023/08/19 08:28:38;;;;;;;12.70;10.57;;;22.50;99.90;;;;;;5085556;28;20048;-58
2023/08/19 08:31:04;;;;;;;13.80;9.73;;;22.60;99.90;;;;;;5061621;28;20075;-57
2023/08/19 08:33:30;;;;;;;13.25;10.07;;;22.70;99.90;;;;;;5062516;28;20104;-58
2023/08/19 08:35:55;;;;;;;13.70;9.93;;;22.70;99.90;;;;;;5074330;28;20047;-58
2023/08/19 08:38:21;;;;;;;13.07;9.70;;;22.80;99.90;;;;;;5073635;28;20041;-58
2023/08/19 08:40:47;;;;;;;12.75;9.00;;;22.90;99.90;;;;;;5075910;28;20070;-58
2023/08/19 08:43:14;;;;;;;11.15;8.75;;;23.10;99.90;;;;;;5073202;28;20486;-58
2023/08/19 08:45:41;;;;;;;11.75;9.05;;;23.20;99.90;;;;;;5074797;28;20041;-58
2023/08/19 08:48:09;;;;;;;12.60;8.98;;;23.20;99.90;;;;;;5072857;28;20055;-58
2023/08/19 08:50:35;;;;;;;12.43;8.90;;;23.20;99.90;;;;;;5074764;28;20060;-58
2023/08/19 08:53:01;;;;;;;13.00;8.80;;;23.40;99.90;;;;;;5075000;28;20146;-57
2023/08/19 08:55:27;;;;;;;11.07;8.60;;;23.60;99.90;;;;;;5058568;28;20075;-58
2023/08/19 08:57:53;;;;;;;11.75;8.93;;;23.60;99.90;;;;;;5077149;28;20059;-58
2023/08/19 09:00:18;;;;;;;10.88;8.02;;;23.80;99.90;;;;;;5092417;28;20054;-58
2023/08/19 09:02:46;;;;;;;10.10;7.55;;;24.10;99.90;;;;;;5095211;28;20033;-58
2023/08/19 09:05:13;;;;;;;10.10;7.80;;;24.20;99.90;;;;;;5085425;28;20122;-58
2023/08/19 09:07:40;;;;;;;11.13;7.53;;;24.20;99.90;;;;;;5083184;28;20033;-58
2023/08/19 09:10:13;;;;;;;9.43;6.93;;;24.50;99.90;;;;;;5079513;28;20056;-58
2023/08/19 09:12:43;;;;;;;11.10;7.13;;;24.60;99.90;;;;;;5073122;28;20051;-58
2023/08/19 09:15:10;;;;;;;12.77;7.55;;;24.70;99.90;;;;;;5078507;28;20052;-58
2023/08/19 09:17:37;;;;;;;11.23;7.57;;;24.60;99.90;;;;;;5083959;28;20068;-57
2023/08/19 09:20:03;;;;;;;10.75;7.35;;;24.60;99.90;;;;;;5087934;28;20048;-57
2023/08/19 09:22:29;;;;;;;10.05;7.32;;;24.50;99.90;;;;;;5093730;28;20219;-58
2023/08/19 09:24:56;;;;;;;11.38;7.32;;;24.50;99.90;;;;;;5095380;28;20052;-58
2023/08/19 09:27:31;;;;;;;11.13;7.05;;;24.60;99.90;;;;;;5082231;28;20052;-58
2023/08/19 09:29:58;;;;;;;9.60;7.85;;;24.60;99.90;;;;;;5095936;28;20048;-58
2023/08/19 09:32:31;;;;;;;10.27;7.45;;;24.60;99.90;;;;;;5094549;28;20039;-59
2023/08/19 09:35:09;;;;;;;9.73;6.97;;;24.70;99.90;;;;;;5091408;28;20040;-58
2023/08/19 09:37:36;;;;;;;9.77;7.10;;;25.00;99.90;;;;;;5070885;28;20055;-57
2023/08/19 09:40:11;;;;;;;10.38;6.95;;;25.10;99.90;;;;;;5091071;28;20040;-58
2023/08/19 09:42:40;;;;;;;11.48;7.53;;;25.20;99.90;;;;;;5084791;28;20036;-58
2023/08/19 09:45:07;;;;;;;10.73;7.47;;;25.30;99.90;;;;;;5096800;28;20122;-58
2023/08/19 09:47:53;;;;;;;11.80;7.60;;;25.40;99.90;;;;;;5093726;28;20040;-58
2023/08/19 09:50:23;;;;;;;10.93;8.05;;;25.60;99.90;;;;;;5096830;28;20048;-58
2023/08/19 09:52:54;;;;;;;14.13;7.38;;;25.60;99.90;;;;;;5076167;28;20395;-58
2023/08/19 09:55:27;;;;;;;11.15;8.27;;;25.60;99.90;;;;;;5086972;28;20107;-59
2023/08/19 09:57:54;;;;;;;10.82;7.78;;;25.60;99.90;;;;;;5086878;28;20047;-59
2023/08/19 10:00:21;;;;;;;9.90;6.80;;;25.60;99.90;;;;;;5093151;28;20048;-59
2023/08/19 10:02:47;;;;;;;10.07;6.75;;;25.50;99.90;;;;;;5096788;28;20036;-59
2023/08/19 10:05:12;;;;;;;10.27;6.68;;;25.60;99.90;;;;;;5090992;28;20105;-57
2023/08/19 10:07:41;;;;;;;11.27;7.03;;;25.60;99.90;;;;;;5097503;28;20036;-58
2023/08/19 10:10:10;;;;;;;12.70;7.20;;;25.60;99.90;;;;;;5096325;28;20094;-59
2023/08/19 10:12:40;;;;;;;11.35;6.72;;;25.60;99.90;;;;;;5080110;28;20040;-58
2023/08/19 10:15:08;;;;;;;12.52;7.00;;;25.60;99.90;;;;;;5082315;28;20040;-59
2023/08/19 10:17:36;;;;;;;11.57;6.82;;;25.50;99.90;;;;;;5080154;28;20041;-60
2023/08/19 10:20:10;;;;;;;11.45;6.97;;;25.50;99.90;;;;;;5081663;28;20178;-58
2023/08/19 10:22:39;;;;;;;10.55;6.95;;;25.40;99.90;;;;;;5062695;28;20060;-57
2023/08/19 10:25:07;;;;;;;10.35;7.82;;;25.40;99.90;;;;;;5080686;28;20052;-58
2023/08/19 10:27:33;;;;;;;12.43;8.43;;;25.20;99.90;;;;;;5098096;28;20044;-58
2023/08/19 10:29:58;;;;;;;11.63;7.57;;;25.00;99.90;;;;;;5089169;28;20046;-59
2023/08/19 10:32:28;;;;;;;12.40;8.07;;;25.00;99.90;;;;;;5089326;28;20044;-59
2023/08/19 10:35:08;;;;;;;10.25;7.68;;;24.90;99.90;;;;;;5066795;28;20036;-59
2023/08/19 10:37:45;;;;;;;11.68;7.85;;;25.00;99.90;;;;;;5064506;28;20052;-59
2023/08/19 10:40:13;;;;;;;11.90;7.75;;;25.00;99.90;;;;;;5096788;28;20103;-58
2023/08/19 10:42:39;;;;;;;12.32;7.70;;;25.00;99.90;;;;;;5088140;28;20082;-58
2023/08/19 10:45:16;;;;;;;12.35;7.80;;;25.00;99.90;;;;;;5098637;28;20043;-58
2023/08/19 10:47:42;;;;;;;11.93;8.02;;;25.00;99.90;;;;;;5091999;28;20399;-58
2023/08/19 10:50:09;;;;;;;12.40;8.75;;;25.00;99.90;;;;;;5063142;28;20108;-58
2023/08/19 10:52:39;;;;;;;12.45;8.60;;;25.10;99.90;;;;;;5093811;28;20043;-58
2023/08/19 10:55:05;;;;;;;13.45;8.85;;;25.00;99.90;;;;;;5088339;28;20055;-58
2023/08/19 10:57:34;;;;;;;11.73;8.63;;;24.90;99.90;;;;;;5081763;28;20099;-58
2023/08/19 11:00:00;;;;;;;13.23;8.25;;;24.90;99.90;;;;;;5096109;28;20041;-58
2023/08/19 11:02:28;;;;;;;14.07;8.60;;;24.90;99.90;;;;;;5099925;28;20044;-58
2023/08/19 11:04:54;;;;;;;10.68;8.25;;;24.90;99.90;;;;;;5097729;28;20056;-58
2023/08/19 11:07:21;;;;;;;12.27;8.95;;;24.90;99.90;;;;;;5064046;28;20048;-58
2023/08/19 11:09:50;;;;;;;13.32;8.63;;;25.00;99.90;;;;;;5099169;28;20055;-58
2023/08/19 11:12:18;;;;;;;13.52;9.88;;;25.00;99.90;;;;;;5090347;28;20052;-58
2023/08/19 11:14:49;;;;;;;13.10;9.98;;;25.00;99.90;;;;;;5091777;28;20063;-58
2023/08/19 11:17:15;;;;;;;13.35;9.50;;;25.00;99.90;;;;;;5075518;28;20483;-58
2023/08/19 11:19:41;;;;;;;14.15;10.68;;;25.20;99.90;;;;;;5100959;28;20067;-59
2023/08/19 11:22:15;;;;;;;15.20;11.20;;;25.20;99.90;;;;;;5098079;28;20044;-58
2023/08/19 11:24:41;;;;;;;14.75;12.02;;;25.60;99.90;;;;;;5098660;28;20048;-58
2023/08/19 11:27:07;;;;;;;13.10;11.07;;;25.80;99.90;;;;;;5099085;28;20493;-58
2023/08/19 11:29:36;;;;;;;17.15;14.05;;;26.10;99.90;;;;;;5097564;28;20055;-58
2023/08/19 11:32:01;;;;;;;17.30;13.07;;;26.30;99.90;;;;;;5099028;28;20491;-58
2023/08/19 11:34:29;;;;;;;14.13;12.07;;;26.40;99.90;;;;;;5097626;28;20106;-58
2023/08/19 11:36:55;;;;;;;14.43;12.07;;;26.40;99.90;;;;;;5074712;28;20097;-58
2023/08/19 11:39:20;;;;;;;16.25;12.90;;;26.60;99.90;;;;;;5099328;28;20040;-58
2023/08/19 11:41:47;;;;;;;18.67;13.48;;;26.50;99.90;;;;;;5100452;28;20047;-58
2023/08/19 11:44:13;;;;;;;17.80;14.13;;;26.30;99.90;;;;;;5099196;28;20048;-58
2023/08/19 11:46:39;;;;;;;21.02;15.68;;;26.20;99.90;;;;;;5080104;28;20097;-58
2023/08/19 11:49:09;;;;;;;17.63;14.85;;;26.10;99.90;;;;;;5091603;28;20059;-58
2023/08/19 11:51:39;;;;;;;18.75;16.45;;;26.20;99.90;;;;;;5097201;28;20076;-58
2023/08/19 11:54:10;;;;;;;20.55;16.88;;;26.10;99.90;;;;;;5098143;28;20079;-58
2023/08/19 11:56:54;;;;;;;19.50;16.35;;;26.10;99.90;;;;;;5091939;28;20440;-58
2023/08/19 11:59:32;;;;;;;19.70;16.50;;;26.00;99.90;;;;;;5093789;28;20044;-58
2023/08/19 12:02:02;;;;;;;20.45;17.40;;;26.00;99.90;;;;;;5100769;28;20061;-58
2023/08/19 12:04:28;;;;;;;25.85;21.77;;;25.90;99.90;;;;;;5097068;28;20530;-58
2023/08/19 12:06:53;;;;;;;32.67;28.30;;;25.60;99.90;;;;;;5093566;28;20048;-58
2023/08/19 12:09:30;;;;;;;33.90;30.17;;;25.50;99.90;;;;;;5093601;28;20093;-58
2023/08/19 12:12:07;;;;;;;34.42;29.27;;;25.40;99.90;;;;;;5095818;28;20071;-58
2023/08/19 12:14:32;;;;;;;33.92;30.25;;;25.40;99.90;;;;;;5098198;28;20051;-58
2023/08/19 12:16:58;;;;;;;46.30;38.75;;;25.20;99.90;;;;;;5095890;28;20093;-58
2023/08/19 12:19:24;;;;;;;47.35;41.78;;;24.80;99.90;;;;;;5088791;28;20033;-57
2023/08/19 12:21:49;;;;;;;53.35;42.28;;;24.50;99.90;;;;;;5090390;28;20065;-58
2023/08/19 12:24:15;;;;;;;56.15;44.45;;;24.30;99.90;;;;;;5080169;28;20048;-57
2023/08/19 12:26:41;;;;;;;58.83;44.13;;;24.10;99.90;;;;;;5058581;28;20108;-57
2023/08/19 12:29:06;;;;;;;52.97;40.72;;;24.10;99.90;;;;;;5075044;28;20044;-58